createdAt,value
2023-03-16T00:00:43.832Z,1.50
2023-03-16T00:03:12.440Z,0.88
2023-03-16T00:05:39.817Z,2.00
2023-03-16T00:08:07.137Z,4.35
2023-03-16T00:10:34.404Z,5.55
2023-03-16T00:13:03.011Z,5.57
2023-03-16T00:15:30.518Z,6.82
2023-03-16T00:17:57.763Z,7.45
2023-03-16T00:20:25.388Z,8.00
2023-03-16T00:22:52.921Z,2.35
2023-03-16T00:25:20.427Z,1.48
2023-03-16T00:27:48.164Z,1.30
2023-03-16T00:30:16.030Z,1.90
2023-03-16T00:32:43.807Z,1.08
2023-03-16T00:35:11.215Z,1.20
2023-03-16T00:37:39.929Z,2.65
2023-03-16T00:40:08.294Z,4.55
2023-03-16T00:42:35.776Z,5.05
2023-03-16T00:45:03.151Z,8.75
2023-03-16T00:47:32.270Z,10.95
2023-03-16T00:50:01.262Z,8.25
2023-03-16T00:52:29.477Z,5.78
2023-03-16T00:54:57.245Z,5.55
2023-03-16T00:57:26.137Z,4.15
2023-03-16T00:59:53.800Z,3.83
2023-03-16T01:02:23.958Z,2.30
2023-03-16T01:04:52.749Z,4.28
2023-03-16T01:07:22.137Z,1.02
2023-03-16T01:09:50.329Z,1.30
2023-03-16T01:12:19.577Z,1.15
2023-03-16T01:14:47.827Z,1.50
2023-03-16T01:17:17.656Z,1.83
2023-03-16T01:19:45.419Z,1.20
2023-03-16T01:22:12.684Z,1.00
2023-03-16T01:24:41.024Z,1.90
2023-03-16T01:27:09.253Z,3.95
2023-03-16T01:29:36.660Z,5.13
2023-03-16T01:32:04.784Z,8.43
2023-03-16T01:34:32.391Z,5.47
2023-03-16T01:36:59.966Z,6.85
2023-03-16T01:39:27.832Z,5.32
2023-03-16T01:41:55.208Z,4.63
2023-03-16T01:44:30.764Z,3.28
2023-03-16T01:46:58.358Z,7.47
2023-03-16T01:49:29.437Z,3.40
2023-03-16T01:52:20.268Z,6.28
2023-03-16T01:54:53.508Z,2.00
2023-03-16T01:57:42.988Z,2.83
2023-03-16T02:00:20.002Z,2.13
2023-03-16T02:02:55.609Z,2.03
2023-03-16T02:05:39.890Z,3.67
2023-03-16T02:08:07.568Z,4.78
2023-03-16T02:10:35.846Z,7.25
2023-03-16T02:13:03.863Z,5.32
2023-03-16T02:15:31.380Z,6.05
2023-03-16T02:18:00.478Z,5.68
2023-03-16T02:20:37.957Z,5.35
2023-03-16T02:23:08.914Z,6.20
2023-03-16T02:25:44.129Z,8.57
2023-03-16T02:28:38.831Z,1.20
2023-03-16T02:31:07.696Z,6.50
2023-03-16T02:33:35.894Z,5.40
2023-03-16T02:36:04.053Z,5.97
2023-03-16T02:38:32.209Z,5.78
2023-03-16T02:41:20.238Z,6.05
2023-03-16T02:44:02.195Z,1.30
2023-03-16T02:46:30.135Z,6.63
2023-03-16T02:49:05.994Z,5.25
2023-03-16T02:51:33.761Z,5.85
2023-03-16T02:54:01.017Z,7.53
2023-03-16T02:56:28.581Z,5.82
2023-03-16T02:58:57.676Z,4.25
2023-03-16T03:01:25.264Z,4.28
2023-03-16T03:03:52.558Z,3.05
2023-03-16T03:06:20.334Z,1.10
2023-03-16T03:08:48.099Z,1.23
2023-03-16T03:11:15.336Z,1.60
2023-03-16T03:13:44.900Z,1.38
2023-03-16T03:16:13.170Z,1.48
2023-03-16T03:18:41.459Z,1.70
2023-03-16T03:21:09.411Z,5.47
2023-03-16T03:23:36.715Z,5.38
2023-03-16T03:26:04.601Z,5.47
2023-03-16T03:28:34.446Z,5.22
2023-03-16T03:31:02.086Z,5.57
2023-03-16T03:33:29.696Z,5.88
2023-03-16T03:35:58.468Z,4.05
2023-03-16T03:38:26.440Z,4.43
2023-03-16T03:40:59.720Z,2.55
2023-03-16T03:43:27.513Z,4.03
2023-03-16T03:45:58.573Z,4.55
2023-03-16T03:48:26.296Z,3.70
2023-03-16T03:50:54.012Z,3.33
2023-03-16T03:53:21.439Z,1.50
2023-03-16T03:55:50.414Z,1.00
2023-03-16T03:58:18.038Z,1.55
2023-03-16T04:00:45.336Z,1.00
2023-03-16T04:03:12.835Z,1.10
2023-03-16T04:05:40.362Z,2.53
2023-03-16T04:08:07.578Z,6.35
2023-03-16T04:10:34.874Z,5.50
2023-03-16T04:13:02.105Z,6.05
2023-03-16T04:15:29.472Z,5.60
2023-03-16T04:17:56.817Z,3.45
2023-03-16T04:20:24.252Z,2.40
2023-03-16T04:22:58.690Z,1.52
2023-03-16T04:25:27.166Z,4.15
2023-03-16T04:27:54.703Z,3.28
2023-03-16T04:30:24.317Z,2.63
2023-03-16T04:32:53.081Z,1.63
2023-03-16T04:35:21.560Z,1.50
2023-03-16T04:37:48.926Z,1.40
2023-03-16T04:40:16.284Z,1.85
2023-03-16T04:42:45.674Z,1.10
2023-03-16T04:45:14.289Z,1.50
2023-03-16T04:47:42.001Z,1.38
2023-03-16T04:50:10.720Z,4.82
2023-03-16T04:52:38.153Z,5.68
2023-03-16T04:55:06.780Z,7.10
2023-03-16T04:57:35.360Z,9.50
2023-03-16T05:00:10.039Z,8.20
2023-03-16T05:02:37.481Z,5.97
2023-03-16T05:05:06.070Z,10.63
2023-03-16T05:07:33.439Z,5.97
2023-03-16T05:10:00.640Z,8.05
2023-03-16T05:12:28.333Z,4.65
2023-03-16T05:14:55.815Z,4.90
2023-03-16T05:17:23.661Z,3.53
2023-03-16T05:19:51.118Z,1.13
2023-03-16T05:22:18.720Z,1.65
2023-03-16T05:24:46.006Z,1.27
2023-03-16T05:27:13.416Z,1.98
2023-03-16T05:29:41.172Z,2.90
2023-03-16T05:32:08.788Z,6.20
2023-03-16T05:34:36.180Z,6.78
2023-03-16T05:37:04.257Z,6.70
2023-03-16T05:39:32.596Z,6.88
2023-03-16T05:41:59.876Z,6.15
2023-03-16T05:44:27.311Z,4.45
2023-03-16T05:46:54.562Z,2.40
2023-03-16T05:49:22.210Z,1.50
2023-03-16T05:51:51.103Z,1.42
2023-03-16T05:54:18.537Z,2.45
2023-03-16T05:56:45.791Z,1.20
2023-03-16T05:59:13.086Z,2.75
2023-03-16T06:01:40.597Z,3.20
2023-03-16T06:04:08.119Z,5.22
2023-03-16T06:06:35.377Z,5.20
2023-03-16T06:09:02.672Z,6.47
2023-03-16T06:11:30.100Z,5.10
2023-03-16T06:13:58.159Z,3.75
2023-03-16T06:16:25.719Z,2.88
2023-03-16T06:18:53.323Z,1.52
2023-03-16T06:21:21.073Z,1.30
2023-03-16T06:23:48.656Z,2.13
2023-03-16T06:26:15.985Z,1.75
2023-03-16T06:28:43.417Z,0.98
2023-03-16T06:31:11.450Z,3.75
2023-03-16T06:33:39.311Z,5.43
2023-03-16T06:36:06.946Z,5.38
2023-03-16T06:38:34.426Z,4.93
2023-03-16T06:41:02.312Z,5.03
2023-03-16T06:43:29.550Z,4.45
2023-03-16T06:45:56.929Z,3.95
2023-03-16T06:48:24.264Z,2.47
2023-03-16T06:50:51.879Z,1.30
2023-03-16T06:53:19.562Z,1.27
2023-03-16T06:55:46.769Z,1.20
2023-03-16T06:58:14.318Z,1.10
2023-03-16T07:00:42.444Z,3.50
2023-03-16T07:03:09.639Z,5.38
2023-03-16T07:05:36.939Z,4.65
2023-03-16T07:08:05.100Z,6.07
2023-03-16T07:10:32.956Z,5.00
2023-03-16T07:13:00.397Z,4.45
2023-03-16T07:15:27.992Z,4.35
2023-03-16T07:17:55.496Z,2.15
2023-03-16T07:20:23.713Z,1.23
2023-03-16T07:22:51.673Z,1.20
2023-03-16T07:25:19.005Z,1.85
2023-03-16T07:27:47.789Z,1.50
2023-03-16T07:30:15.179Z,1.00
2023-03-16T07:32:42.799Z,3.15
2023-03-16T07:35:13.634Z,4.40
2023-03-16T07:37:40.880Z,4.43
2023-03-16T07:40:09.615Z,4.72
2023-03-16T07:42:37.531Z,4.53
2023-03-16T07:45:06.024Z,5.10
2023-03-16T07:47:33.953Z,4.43
2023-03-16T07:50:01.667Z,5.05
2023-03-16T07:52:29.056Z,3.97
2023-03-16T07:54:56.425Z,2.47
2023-03-16T07:57:24.302Z,1.23
2023-03-16T07:59:52.356Z,1.20
2023-03-16T08:02:22.033Z,0.95
2023-03-16T08:04:49.501Z,1.35
2023-03-16T08:07:17.209Z,1.00
2023-03-16T08:09:44.567Z,2.95
2023-03-16T08:12:12.095Z,3.75
2023-03-16T08:14:39.572Z,5.10
2023-03-16T08:17:07.725Z,4.43
2023-03-16T08:19:35.245Z,4.40
2023-03-16T08:22:04.024Z,5.55
2023-03-16T08:24:31.889Z,2.78
2023-03-16T08:26:59.816Z,4.03
2023-03-16T08:29:27.420Z,4.18
2023-03-16T08:31:56.616Z,1.30
2023-03-16T08:34:25.198Z,1.40
2023-03-16T08:36:52.931Z,1.02
2023-03-16T08:39:20.655Z,1.17
2023-03-16T08:41:50.141Z,1.17
2023-03-16T08:44:17.779Z,0.90
2023-03-16T08:46:45.076Z,1.35
2023-03-16T08:49:14.020Z,3.47
2023-03-16T08:51:43.279Z,4.07
2023-03-16T08:54:11.675Z,3.90
2023-03-16T08:56:38.967Z,3.95
2023-03-16T08:59:07.787Z,3.75
2023-03-16T09:01:36.283Z,4.03
2023-03-16T09:04:03.712Z,4.35
2023-03-16T09:06:32.085Z,2.95
2023-03-16T09:09:00.273Z,3.42
2023-03-16T09:11:30.833Z,2.03
2023-03-16T09:13:58.523Z,1.52
2023-03-16T09:16:26.292Z,1.48
2023-03-16T09:18:54.510Z,1.02
2023-03-16T09:21:22.124Z,1.00
2023-03-16T09:23:49.965Z,1.10
2023-03-16T09:26:17.291Z,1.00
2023-03-16T09:28:44.638Z,1.90
2023-03-16T09:31:18.657Z,3.25
2023-03-16T09:33:46.673Z,1.45
2023-03-16T09:36:14.580Z,2.13
2023-03-16T09:38:42.757Z,3.30
2023-03-16T09:41:17.337Z,3.17
2023-03-16T09:44:06.387Z,1.53
2023-03-16T09:46:52.776Z,3.77
2023-03-16T09:49:21.880Z,0.80
2023-03-16T09:52:06.414Z,1.03
2023-03-16T09:54:39.519Z,3.20
2023-03-16T09:57:16.971Z,3.20
2023-03-16T09:59:44.609Z,2.07
2023-03-16T10:02:30.465Z,3.23
2023-03-16T10:05:21.078Z,1.27
2023-03-16T10:08:06.956Z,0.97
2023-03-16T10:11:02.952Z,3.33
2023-03-16T10:13:57.932Z,2.97
2023-03-16T10:16:39.667Z,0.80
2023-03-16T10:19:25.008Z,2.83
2023-03-16T10:21:55.518Z,0.90
2023-03-16T10:24:51.169Z,0.80
2023-03-16T10:27:29.193Z,0.80
2023-03-16T10:29:56.930Z,1.30
2023-03-16T10:32:29.683Z,4.20
2023-03-16T10:35:06.546Z,1.30
2023-03-16T10:37:34.093Z,2.60
2023-03-16T10:40:01.370Z,2.40
2023-03-16T10:42:28.735Z,1.67
2023-03-16T10:45:01.877Z,0.90
2023-03-16T10:47:33.306Z,2.50
2023-03-16T10:50:12.766Z,3.17
2023-03-16T10:52:48.444Z,3.27
2023-03-16T10:55:25.685Z,1.30
2023-03-16T10:57:56.161Z,0.87
2023-03-16T11:00:29.115Z,1.10
2023-03-16T11:02:57.622Z,1.17
2023-03-16T11:05:33.101Z,0.80
2023-03-16T11:08:16.934Z,2.60
2023-03-16T11:10:56.343Z,1.73
2023-03-16T11:13:35.684Z,0.93
2023-03-16T11:16:30.866Z,3.43
2023-03-16T11:19:09.862Z,1.40
2023-03-16T11:21:55.242Z,3.63
2023-03-16T11:24:33.582Z,0.80
2023-03-16T11:27:04.816Z,2.70
2023-03-16T11:29:45.523Z,3.33
2023-03-16T11:32:20.822Z,2.50
2023-03-16T11:34:49.240Z,0.70
2023-03-16T11:37:22.793Z,0.80
2023-03-16T11:40:30.340Z,0.93
2023-03-16T11:43:42.159Z,1.47
2023-03-16T11:46:30.519Z,2.70
2023-03-16T11:49:03.645Z,1.77
2023-03-16T11:51:46.370Z,2.40
2023-03-16T11:54:49.054Z,2.20
2023-03-16T11:57:51.825Z,0.90
2023-03-16T12:00:53.755Z,0.70
2023-03-16T12:03:43.366Z,0.57
2023-03-16T12:06:23.833Z,2.60
2023-03-16T12:09:35.337Z,0.70
2023-03-16T12:12:17.166Z,2.70
2023-03-16T12:14:51.308Z,1.57
2023-03-16T12:17:23.960Z,0.70
2023-03-16T12:20:08.110Z,0.60
2023-03-16T12:22:47.127Z,2.73
2023-03-16T12:25:25.310Z,1.73
2023-03-16T12:27:58.719Z,0.60
2023-03-16T12:30:36.316Z,0.67
2023-03-16T12:33:18.767Z,2.63
2023-03-16T12:35:55.438Z,1.13
2023-03-16T12:38:57.447Z,0.70
2023-03-16T12:41:40.396Z,0.60
2023-03-16T12:44:16.099Z,2.40
2023-03-16T12:46:53.759Z,1.93
2023-03-16T12:49:21.626Z,0.70
2023-03-16T12:52:02.751Z,0.70
2023-03-16T12:54:30.282Z,1.30
2023-03-16T12:57:02.307Z,1.20
2023-03-16T12:59:43.133Z,1.27
2023-03-16T13:02:20.512Z,2.40
2023-03-16T13:04:51.866Z,0.70
2023-03-16T13:07:27.388Z,1.63
2023-03-16T13:10:09.050Z,0.70
2023-03-16T13:12:38.689Z,2.30
2023-03-16T13:15:13.354Z,2.83
2023-03-16T13:17:40.682Z,2.30
2023-03-16T13:20:27.680Z,2.83
2023-03-16T13:23:18.894Z,3.50
2023-03-16T13:26:18.446Z,1.33
2023-03-16T13:28:50.724Z,1.57
2023-03-16T13:31:39.330Z,0.93
2023-03-16T13:34:07.559Z,2.30
2023-03-16T13:36:35.857Z,2.57
2023-03-16T13:39:22.679Z,1.57
2023-03-16T13:42:08.884Z,0.70
2023-03-16T13:44:42.113Z,2.43
2023-03-16T13:47:19.901Z,1.77
2023-03-16T13:49:51.907Z,1.03
2023-03-16T13:52:35.082Z,1.90
2023-03-16T13:55:17.900Z,2.40
2023-03-16T13:57:46.342Z,2.60
2023-03-16T14:00:22.560Z,2.20
2023-03-16T14:03:05.338Z,0.57
2023-03-16T14:05:35.384Z,2.10
2023-03-16T14:08:05.209Z,1.90
2023-03-16T14:10:35.032Z,2.17
2023-03-16T14:13:10.923Z,1.60
2023-03-16T14:15:41.501Z,2.20
2023-03-16T14:18:21.790Z,2.73
2023-03-16T14:20:53.627Z,1.10
2023-03-16T14:23:31.917Z,0.63
2023-03-16T14:25:59.407Z,0.67
2023-03-16T14:28:33.266Z,0.57
2023-03-16T14:31:10.692Z,1.10
2023-03-16T14:33:42.379Z,2.70
2023-03-16T14:36:15.675Z,3.03
2023-03-16T14:38:44.534Z,2.20
2023-03-16T14:41:31.895Z,2.20
2023-03-16T14:44:01.521Z,0.60
2023-03-16T14:46:31.486Z,0.70
2023-03-16T14:49:36.891Z,0.70
2023-03-16T14:52:16.983Z,1.07
2023-03-16T14:54:44.648Z,2.30
2023-03-16T14:57:17.540Z,2.40
2023-03-16T14:59:44.842Z,2.10
2023-03-16T15:02:32.643Z,2.20
2023-03-16T15:05:01.559Z,0.70
2023-03-16T15:07:31.069Z,0.80
2023-03-16T15:10:17.191Z,0.50
2023-03-16T15:12:50.773Z,2.50
2023-03-16T15:15:20.250Z,2.20
2023-03-16T15:17:47.599Z,2.30
2023-03-16T15:20:17.310Z,1.97
2023-03-16T15:22:46.645Z,1.97
2023-03-16T15:25:21.909Z,2.50
2023-03-16T15:27:51.274Z,1.77
2023-03-16T15:30:22.161Z,2.23
2023-03-16T15:32:49.761Z,2.27
2023-03-16T15:35:17.953Z,2.40
2023-03-16T15:37:45.860Z,2.50
2023-03-16T15:40:26.840Z,2.63
2023-03-16T15:42:54.588Z,0.90
2023-03-16T15:45:23.758Z,1.37
2023-03-16T15:47:52.628Z,2.20
2023-03-16T15:50:22.863Z,2.20
2023-03-16T15:52:54.773Z,2.70
2023-03-16T15:55:24.807Z,2.10
2023-03-16T15:58:00.656Z,2.07
2023-03-16T16:00:33.898Z,0.50
2023-03-16T16:03:02.447Z,0.70
2023-03-16T16:05:31.517Z,0.60
2023-03-16T16:07:59.469Z,0.70
2023-03-16T16:10:27.818Z,0.97
2023-03-16T16:12:57.026Z,1.37
2023-03-16T16:15:32.393Z,1.90
2023-03-16T16:18:21.263Z,0.60
2023-03-16T16:20:48.811Z,2.93
2023-03-16T16:23:17.023Z,2.77
2023-03-16T16:25:45.360Z,2.90
2023-03-16T16:28:22.025Z,2.37
2023-03-16T16:30:50.161Z,2.50
2023-03-16T16:33:32.239Z,2.50
2023-03-16T16:36:02.326Z,0.90
2023-03-16T16:38:30.440Z,0.70
2023-03-16T16:41:01.181Z,1.40
2023-03-16T16:43:47.585Z,0.80
2023-03-16T16:46:18.314Z,2.10
2023-03-16T16:49:15.608Z,2.97
2023-03-16T16:51:43.832Z,2.10
2023-03-16T16:54:22.900Z,1.00
2023-03-16T16:56:53.034Z,3.60
2023-03-16T16:59:31.663Z,3.23
2023-03-16T17:01:59.249Z,1.33
2023-03-16T17:04:28.885Z,2.50
2023-03-16T17:07:02.399Z,2.90
2023-03-16T17:09:30.996Z,1.23
2023-03-16T17:11:59.867Z,2.20
2023-03-16T17:14:31.736Z,2.43
2023-03-16T17:17:05.307Z,1.93
2023-03-16T17:19:33.205Z,0.80
2023-03-16T17:22:00.517Z,1.73
2023-03-16T17:24:28.965Z,3.93
2023-03-16T17:26:59.102Z,2.90
2023-03-16T17:29:33.979Z,2.87
2023-03-16T17:32:03.435Z,1.23
2023-03-16T17:34:33.171Z,1.47
2023-03-16T17:37:02.163Z,1.83
2023-03-16T17:39:31.943Z,2.77
2023-03-16T17:42:05.716Z,3.00
2023-03-16T17:44:50.724Z,2.13
2023-03-16T17:47:23.716Z,2.30
2023-03-16T17:49:51.709Z,3.57
2023-03-16T17:52:23.773Z,1.87
2023-03-16T17:54:52.282Z,3.83
2023-03-16T17:57:30.797Z,2.23
2023-03-16T17:59:59.099Z,3.43
2023-03-16T18:02:47.837Z,3.17
2023-03-16T18:05:20.911Z,0.63
2023-03-16T18:07:48.760Z,1.60
2023-03-16T18:10:21.615Z,1.23
2023-03-16T18:12:53.772Z,1.27
2023-03-16T18:15:23.416Z,2.83
2023-03-16T18:17:51.076Z,2.10
2023-03-16T18:20:24.964Z,1.30
2023-03-16T18:22:52.199Z,3.10
2023-03-16T18:25:31.929Z,1.73
2023-03-16T18:28:00.242Z,3.90
2023-03-16T18:30:28.389Z,3.23
2023-03-16T18:32:56.949Z,4.30
2023-03-16T18:35:24.266Z,2.77
2023-03-16T18:37:53.497Z,1.47
2023-03-16T18:40:21.280Z,1.37
2023-03-16T18:42:48.772Z,0.80
2023-03-16T18:45:19.324Z,0.80
2023-03-16T18:47:52.414Z,0.87
2023-03-16T18:50:23.537Z,0.77
2023-03-16T18:52:52.061Z,0.70
2023-03-16T18:55:22.809Z,0.90
2023-03-16T18:57:53.185Z,1.63
2023-03-16T19:00:26.859Z,0.80
2023-03-16T19:02:59.212Z,1.83
2023-03-16T19:05:32.164Z,2.10
2023-03-16T19:07:59.562Z,2.70
2023-03-16T19:10:29.705Z,1.43
2023-03-16T19:12:57.087Z,1.70
2023-03-16T19:15:28.242Z,0.90
2023-03-16T19:17:55.994Z,1.60
2023-03-16T19:20:26.498Z,0.90
2023-03-16T19:23:00.739Z,2.00
2023-03-16T19:25:34.964Z,1.37
2023-03-16T19:28:02.622Z,3.50
2023-03-16T19:30:31.357Z,3.00
2023-03-16T19:32:58.882Z,1.60
2023-03-16T19:35:50.363Z,0.83
2023-03-16T19:38:18.529Z,1.10
2023-03-16T19:40:57.061Z,2.50
2023-03-16T19:43:26.030Z,0.90
2023-03-16T19:45:55.400Z,2.30
2023-03-16T19:48:34.125Z,0.80
2023-03-16T19:51:02.254Z,2.07
2023-03-16T19:53:29.673Z,1.30
2023-03-16T19:55:57.144Z,1.27
2023-03-16T19:58:39.993Z,1.00
2023-03-16T20:01:17.739Z,4.73
2023-03-16T20:03:47.797Z,3.70
2023-03-16T20:06:18.661Z,3.80
2023-03-16T20:08:47.203Z,3.80
2023-03-16T20:11:33.476Z,4.13
2023-03-16T20:14:01.749Z,1.57
2023-03-16T20:16:32.002Z,0.80
2023-03-16T20:19:02.112Z,1.87
2023-03-16T20:21:30.221Z,0.73
2023-03-16T20:23:57.865Z,1.53
2023-03-16T20:26:32.588Z,1.00
2023-03-16T20:29:01.067Z,1.13
2023-03-16T20:31:31.674Z,0.80
2023-03-16T20:33:59.714Z,0.93
2023-03-16T20:36:27.998Z,0.97
2023-03-16T20:38:55.410Z,0.70
2023-03-16T20:41:30.660Z,3.00
2023-03-16T20:43:59.789Z,1.93
2023-03-16T20:46:29.226Z,0.80
2023-03-16T20:48:57.557Z,1.00
2023-03-16T20:51:24.833Z,2.50
2023-03-16T20:53:53.055Z,4.27
2023-03-16T20:56:25.657Z,4.23
2023-03-16T20:58:55.994Z,4.03
2023-03-16T21:01:24.897Z,4.20
2023-03-16T21:03:55.534Z,3.90
2023-03-16T21:06:28.683Z,3.83
2023-03-16T21:08:57.409Z,4.07
2023-03-16T21:11:35.654Z,3.73
2023-03-16T21:14:03.517Z,1.20
2023-03-16T21:16:30.858Z,0.70
2023-03-16T21:18:58.306Z,2.83
2023-03-16T21:21:25.807Z,4.10
2023-03-16T21:23:53.144Z,4.13
2023-03-16T21:26:25.029Z,4.60
2023-03-16T21:28:58.426Z,3.90
2023-03-16T21:31:26.649Z,4.10
2023-03-16T21:33:54.916Z,3.83
2023-03-16T21:36:26.499Z,4.50
2023-03-16T21:38:54.720Z,4.20
2023-03-16T21:41:23.127Z,3.80
2023-03-16T21:43:50.593Z,6.17
2023-03-16T21:46:20.916Z,4.17
2023-03-16T21:48:50.771Z,3.30
2023-03-16T21:51:30.444Z,3.17
2023-03-16T21:53:58.598Z,4.30
2023-03-16T21:56:26.573Z,4.43
2023-03-16T21:58:54.648Z,5.17
2023-03-16T22:01:25.289Z,3.03
2023-03-16T22:04:01.608Z,4.03
2023-03-16T22:06:29.701Z,3.70
2023-03-16T22:08:57.986Z,5.70
2023-03-16T22:11:28.499Z,3.63
2023-03-16T22:13:57.357Z,4.20
2023-03-16T22:16:27.032Z,8.13
2023-03-16T22:18:57.323Z,3.63
2023-03-16T22:21:33.573Z,3.37
2023-03-16T22:24:02.309Z,4.80
2023-03-16T22:26:30.284Z,5.80
2023-03-16T22:28:58.019Z,4.33
2023-03-16T22:31:35.297Z,2.80
2023-03-16T22:34:03.878Z,3.90
2023-03-16T22:36:32.469Z,5.17
2023-03-16T22:39:05.731Z,5.00
2023-03-16T22:41:33.201Z,4.33
2023-03-16T22:44:01.991Z,4.30
2023-03-16T22:46:29.801Z,4.83
2023-03-16T22:48:59.323Z,3.20
2023-03-16T22:51:32.295Z,3.47
2023-03-16T22:54:05.890Z,4.13
2023-03-16T22:56:33.522Z,4.37
2023-03-16T22:59:03.741Z,4.23
2023-03-16T23:01:36.275Z,4.40
2023-03-16T23:04:04.186Z,4.93
2023-03-16T23:06:33.153Z,8.23
2023-03-16T23:09:00.345Z,3.67
2023-03-16T23:11:31.190Z,1.67
2023-03-16T23:14:00.032Z,1.47
2023-03-16T23:16:35.975Z,1.60
2023-03-16T23:19:09.782Z,4.63
2023-03-16T23:21:39.657Z,4.40
2023-03-16T23:24:07.234Z,4.60
2023-03-16T23:26:34.521Z,4.90
2023-03-16T23:29:01.780Z,3.07
2023-03-16T23:31:29.952Z,1.30
2023-03-16T23:33:57.657Z,0.90
2023-03-16T23:36:26.661Z,1.00
2023-03-16T23:38:53.981Z,1.10
2023-03-16T23:41:23.426Z,0.93
2023-03-16T23:43:51.450Z,1.17
2023-03-16T23:46:21.861Z,2.93
2023-03-16T23:48:50.049Z,3.57
2023-03-16T23:51:23.789Z,4.33
2023-03-16T23:53:51.370Z,3.37
2023-03-16T23:56:19.185Z,4.30
2023-03-16T23:58:46.710Z,4.30
